Time;durP1;ratioP1;P1;durP2;ratioP2;P2;SDS_P1;SDS_P2;PMS_P1;PMS_P2;Temp;Humidity;BMP_temperature;BMP_pressure;BME280_temperature;BME280_humidity;BME280_pressure;Samples;Min_cycle;Max_cycle;Signal;HPM_P1;HPM_P2
2023/09/24 00:00:59;;;;;;;8.87;6.40;;;;;;;;;;5073768;28;20182;-76
2023/09/24 00:03:25;;;;;;;10.10;7.40;;;;;;;;;;5053981;28;20495;-75
2023/09/24 00:05:52;;;;;;;11.57;6.83;;;;;;;;;;5053790;28;20273;-76
2023/09/24 00:08:18;;;;;;;8.13;6.37;;;;;;;;;;5057488;28;20183;-76
2023/09/24 00:10:52;;;;;;;12.07;6.50;;;;;;;;;;5073795;28;20186;-75
2023/09/24 00:13:19;;;;;;;11.50;6.23;;;;;;;;;;5075228;28;20205;-75
2023/09/24 00:15:45;;;;;;;8.75;6.30;;;;;;;;;;5068060;28;20432;-75
2023/09/24 00:18:11;;;;;;;8.53;6.07;;;;;;;;;;5054553;28;20240;-75
2023/09/24 00:20:39;;;;;;;6.73;5.77;;;;;;;;;;5075239;28;20171;-76
2023/09/24 00:23:05;;;;;;;9.13;6.10;;;;;;;;;;5073790;28;20199;-76
2023/09/24 00:25:31;;;;;;;10.13;6.67;;;;;;;;;;5073071;28;20256;-76
2023/09/24 00:27:57;;;;;;;8.50;6.30;;;;;;;;;;5073701;28;20270;-76
2023/09/24 00:30:23;;;;;;;9.05;7.45;;;;;;;;;;5073702;28;20425;-77
2023/09/24 00:32:49;;;;;;;8.20;6.70;;;;;;;;;;5073546;28;20186;-77
2023/09/24 00:35:15;;;;;;;10.80;7.22;;;;;;;;;;5047786;28;20452;-77
2023/09/24 00:37:42;;;;;;;11.25;8.43;;;;;;;;;;5067166;28;20418;-76
2023/09/24 00:40:10;;;;;;;8.77;7.28;;;;;;;;;;5073453;28;20406;-76
2023/09/24 00:42:36;;;;;;;10.38;8.23;;;;;;;;;;5056591;28;20441;-75
2023/09/24 00:45:03;;;;;;;11.53;7.17;;;;;;;;;;5073628;28;20245;-75
2023/09/24 00:47:29;;;;;;;8.77;6.73;;;;;;;;;;5072803;28;20179;-76
2023/09/24 00:49:55;;;;;;;11.10;7.85;;;;;;;;;;5072826;28;20422;-76
2023/09/24 00:52:25;;;;;;;9.23;6.13;;;;;;;;;;5072909;28;20249;-75
2023/09/24 00:54:51;;;;;;;7.90;6.57;;;;;;;;;;5073048;28;20187;-76
2023/09/24 00:57:18;;;;;;;8.73;6.00;;;;;;;;;;5063555;28;20180;-75
2023/09/24 00:59:46;;;;;;;8.40;6.50;;;;;;;;;;5049589;28;20187;-76
2023/09/24 01:02:13;;;;;;;10.30;6.63;;;;;;;;;;5047464;28;20191;-76
2023/09/24 01:04:40;;;;;;;9.27;7.00;;;;;;;;;;5073829;28;20206;-76
2023/09/24 01:07:07;;;;;;;9.30;7.07;;;;;;;;;;5056914;28;20191;-75
2023/09/24 01:09:33;;;;;;;7.03;6.23;;;;;;;;;;5073160;28;20283;-76
2023/09/24 01:12:03;;;;;;;10.60;6.63;;;;;;;;;;5056899;28;20189;-77
2023/09/24 01:14:30;;;;;;;7.97;6.50;;;;;;;;;;5073770;28;20211;-77
2023/09/24 01:16:56;;;;;;;7.53;6.33;;;;;;;;;;5073577;28;20186;-77
2023/09/24 01:19:23;;;;;;;9.23;6.00;;;;;;;;;;5056195;28;20209;-77
2023/09/24 01:21:50;;;;;;;9.30;6.30;;;;;;;;;;5056593;28;20186;-77
2023/09/24 01:24:16;;;;;;;8.33;6.43;;;;;;;;;;5072197;28;20245;-77
2023/09/24 01:26:44;;;;;;;7.97;6.37;;;;;;;;;;5073054;28;20183;-77
2023/09/24 01:29:11;;;;;;;9.37;6.00;;;;;;;;;;5052868;28;20188;-77
2023/09/24 01:31:40;;;;;;;9.70;6.30;;;;;;;;;;5071098;28;20270;-77
2023/09/24 01:34:09;;;;;;;8.43;6.00;;;;;;;;;;5068655;28;20180;-76
2023/09/24 01:36:35;;;;;;;8.00;6.30;;;;;;;;;;5054682;28;20204;-77
2023/09/24 01:39:01;;;;;;;10.00;6.20;;;;;;;;;;5052496;28;20198;-77
2023/09/24 01:41:31;;;;;;;8.53;6.80;;;;;;;;;;5047204;28;20231;-77
2023/09/24 01:43:59;;;;;;;7.77;6.20;;;;;;;;;;5071237;28;20179;-77
2023/09/24 01:46:25;;;;;;;7.87;6.50;;;;;;;;;;5059217;28;20233;-76
2023/09/24 01:48:53;;;;;;;8.60;6.10;;;;;;;;;;5069277;28;20175;-76
2023/09/24 01:51:20;;;;;;;7.47;5.93;;;;;;;;;;5072435;28;20189;-76
2023/09/24 01:53:48;;;;;;;9.17;5.97;;;;;;;;;;5072344;28;20175;-76
2023/09/24 01:56:17;;;;;;;7.30;6.00;;;;;;;;;;5073632;28;20174;-76
2023/09/24 01:58:43;;;;;;;8.57;6.10;;;;;;;;;;5056716;28;20184;-76
2023/09/24 02:01:09;;;;;;;7.43;5.70;;;;;;;;;;5066568;28;20183;-76
2023/09/24 02:03:36;;;;;;;7.07;6.37;;;;;;;;;;5076805;28;20183;-76
2023/09/24 02:06:03;;;;;;;9.23;6.70;;;;;;;;;;5076187;28;20230;-77
2023/09/24 02:08:30;;;;;;;8.67;6.70;;;;;;;;;;5057455;28;20175;-76
2023/09/24 02:10:57;;;;;;;11.43;6.27;;;;;;;;;;5058797;28;20176;-76
2023/09/24 02:13:23;;;;;;;8.27;6.63;;;;;;;;;;5076091;28;20297;-76
2023/09/24 02:15:49;;;;;;;7.10;6.40;;;;;;;;;;5077173;28;20186;-76
2023/09/24 02:18:16;;;;;;;7.67;6.80;;;;;;;;;;5081907;28;20203;-79
2023/09/24 02:20:46;;;;;;;9.20;6.53;;;;;;;;;;5065160;28;20211;-76
2023/09/24 02:23:12;;;;;;;7.60;6.80;;;;;;;;;;5076907;28;20175;-76
2023/09/24 02:25:38;;;;;;;10.37;7.10;;;;;;;;;;5059058;28;20264;-76
2023/09/24 02:28:05;;;;;;;9.03;6.23;;;;;;;;;;5076429;28;20205;-76
2023/09/24 02:30:32;;;;;;;6.47;5.87;;;;;;;;;;5077171;28;20177;-76
2023/09/24 02:33:02;;;;;;;7.37;5.70;;;;;;;;;;5076154;28;20183;-76
2023/09/24 02:35:29;;;;;;;7.47;6.20;;;;;;;;;;5076140;28;20184;-79
2023/09/24 02:37:55;;;;;;;7.03;6.00;;;;;;;;;;5076076;28;20179;-79
2023/09/24 02:40:23;;;;;;;6.77;6.03;;;;;;;;;;5076287;28;20194;-79
2023/09/24 02:42:50;;;;;;;8.27;5.87;;;;;;;;;;5092393;28;20352;-80
2023/09/24 02:45:16;;;;;;;7.40;6.63;;;;;;;;;;5077768;28;20297;-80
2023/09/24 02:47:42;;;;;;;8.23;7.00;;;;;;;;;;5079367;28;20171;-79
2023/09/24 02:50:12;;;;;;;8.70;6.63;;;;;;;;;;5078748;28;20185;-78
2023/09/24 02:52:39;;;;;;;7.70;6.47;;;;;;;;;;5076827;28;20171;-79
2023/09/24 02:55:06;;;;;;;6.87;5.97;;;;;;;;;;5078687;28;20214;-79
2023/09/24 02:57:32;;;;;;;11.90;6.77;;;;;;;;;;5063132;28;20202;-80
2023/09/24 03:00:00;;;;;;;7.27;6.43;;;;;;;;;;5079432;28;20178;-79
2023/09/24 03:02:29;;;;;;;7.53;6.80;;;;;;;;;;5096240;28;20190;-79
2023/09/24 03:04:56;;;;;;;9.83;7.00;;;;;;;;;;5079156;28;20214;-80
2023/09/24 03:07:22;;;;;;;10.17;6.60;;;;;;;;;;5062650;28;20194;-79
2023/09/24 03:09:49;;;;;;;7.27;6.53;;;;;;;;;;5075485;28;20186;-80
2023/09/24 03:12:15;;;;;;;8.40;6.37;;;;;;;;;;5090413;28;20194;-79
2023/09/24 03:14:41;;;;;;;7.73;6.70;;;;;;;;;;5078496;28;20197;-80
2023/09/24 03:17:07;;;;;;;7.37;6.60;;;;;;;;;;5078892;28;20183;-80
2023/09/24 03:19:33;;;;;;;8.30;7.17;;;;;;;;;;5096441;28;20190;-80
2023/09/24 03:21:59;;;;;;;9.47;6.83;;;;;;;;;;5078761;28;20201;-80
2023/09/24 03:24:25;;;;;;;9.93;7.20;;;;;;;;;;5078739;28;20206;-77
2023/09/24 03:26:51;;;;;;;8.83;7.37;;;;;;;;;;5096736;28;20188;-76
2023/09/24 03:29:19;;;;;;;9.03;6.87;;;;;;;;;;5061589;28;20182;-76
2023/09/24 03:31:45;;;;;;;8.80;7.50;;;;;;;;;;5077311;28;20185;-76
2023/09/24 03:34:11;;;;;;;7.43;6.60;;;;;;;;;;5062806;28;20191;-76
2023/09/24 03:36:37;;;;;;;7.43;6.67;;;;;;;;;;5077961;28;20217;-76
2023/09/24 03:39:04;;;;;;;9.43;7.77;;;;;;;;;;5060450;28;20179;-76
2023/09/24 03:41:30;;;;;;;12.00;7.67;;;;;;;;;;5053874;28;20211;-76
2023/09/24 03:43:56;;;;;;;9.27;7.87;;;;;;;;;;5077533;28;20202;-76
2023/09/24 03:46:22;;;;;;;9.90;7.40;;;;;;;;;;5061746;28;20244;-76
2023/09/24 03:48:49;;;;;;;10.27;7.60;;;;;;;;;;5091758;28;20188;-76
2023/09/24 03:51:15;;;;;;;11.07;7.47;;;;;;;;;;5065763;28;20206;-76
2023/09/24 03:53:41;;;;;;;11.70;7.63;;;;;;;;;;5077716;28;20202;-76
2023/09/24 03:56:07;;;;;;;8.63;7.23;;;;;;;;;;5063027;28;20175;-75
2023/09/24 03:58:33;;;;;;;8.10;7.30;;;;;;;;;;5065797;28;20239;-79
2023/09/24 04:01:07;;;;;;;9.57;7.20;;;;;;;;;;5092683;28;20261;-79
2023/09/24 04:03:34;;;;;;;10.03;7.30;;;;;;;;;;5089190;28;20194;-79
2023/09/24 04:06:00;;;;;;;8.27;7.13;;;;;;;;;;5071275;28;20210;-80
2023/09/24 04:08:26;;;;;;;11.37;7.80;;;;;;;;;;5058182;28;20187;-79
2023/09/24 04:10:52;;;;;;;9.17;7.17;;;;;;;;;;5091228;28;20175;-79
2023/09/24 04:13:18;;;;;;;9.03;7.53;;;;;;;;;;5077726;28;20261;-77
2023/09/24 04:15:44;;;;;;;10.33;7.30;;;;;;;;;;5094148;28;20197;-76
2023/09/24 04:18:10;;;;;;;8.37;7.47;;;;;;;;;;5070776;28;20187;-76
2023/09/24 04:20:36;;;;;;;10.23;7.70;;;;;;;;;;5063483;28;20229;-76
2023/09/24 04:23:02;;;;;;;10.00;8.33;;;;;;;;;;5077470;28;20183;-79
2023/09/24 04:25:29;;;;;;;10.60;7.40;;;;;;;;;;5060630;28;20215;-79
2023/09/24 04:27:55;;;;;;;8.60;7.80;;;;;;;;;;5077696;28;20182;-79
2023/09/24 04:30:23;;;;;;;12.23;8.23;;;;;;;;;;5077095;28;20174;-75
2023/09/24 04:32:53;;;;;;;11.87;8.17;;;;;;;;;;5075827;28;20186;-75
2023/09/24 04:35:20;;;;;;;11.97;7.80;;;;;;;;;;5090606;28;20191;-75
2023/09/24 04:37:47;;;;;;;10.10;8.50;;;;;;;;;;5063264;28;20178;-77
2023/09/24 04:40:14;;;;;;;11.37;8.50;;;;;;;;;;5076303;28;20197;-75
2023/09/24 04:42:45;;;;;;;10.20;8.33;;;;;;;;;;5074206;28;20237;-75
2023/09/24 04:45:11;;;;;;;16.13;8.60;;;;;;;;;;5077366;28;20203;-74
2023/09/24 04:47:38;;;;;;;8.67;7.77;;;;;;;;;;5076891;28;20202;-74
2023/09/24 04:50:04;;;;;;;10.07;7.37;;;;;;;;;;5076326;28;20242;-74
2023/09/24 04:52:30;;;;;;;11.37;7.90;;;;;;;;;;5054747;28;20241;-74
2023/09/24 04:54:56;;;;;;;8.93;8.03;;;;;;;;;;5093494;28;20265;-75
2023/09/24 04:57:22;;;;;;;8.47;7.57;;;;;;;;;;5094964;28;20210;-74
2023/09/24 04:59:53;;;;;;;10.57;8.37;;;;;;;;;;5070433;28;20182;-74
2023/09/24 05:02:20;;;;;;;9.63;7.60;;;;;;;;;;5084742;28;20179;-75
2023/09/24 05:04:46;;;;;;;10.53;7.93;;;;;;;;;;5062406;28;20229;-79
2023/09/24 05:07:12;;;;;;;10.73;8.23;;;;;;;;;;5084403;28;20187;-79
2023/09/24 05:09:38;;;;;;;11.93;7.53;;;;;;;;;;5056897;28;20184;-79
2023/09/24 05:12:04;;;;;;;9.10;8.10;;;;;;;;;;5073766;28;20282;-79
2023/09/24 05:14:30;;;;;;;8.73;7.43;;;;;;;;;;5059943;28;20204;-79
2023/09/24 05:16:56;;;;;;;10.13;7.83;;;;;;;;;;5056805;28;20191;-79
2023/09/24 05:19:22;;;;;;;10.20;7.53;;;;;;;;;;5057709;28;20190;-78
2023/09/24 05:21:49;;;;;;;11.03;7.90;;;;;;;;;;5068160;28;20246;-75
2023/09/24 05:24:15;;;;;;;11.93;9.37;;;;;;;;;;5072112;28;20215;-75
2023/09/24 05:26:41;;;;;;;11.80;8.87;;;;;;;;;;5076535;28;20182;-75
2023/09/24 05:29:07;;;;;;;9.33;8.33;;;;;;;;;;5069941;28;20194;-75
2023/09/24 05:31:33;;;;;;;11.93;8.87;;;;;;;;;;5076261;28;20182;-75
2023/09/24 05:33:59;;;;;;;12.27;8.80;;;;;;;;;;5049829;28;20183;-74
2023/09/24 05:36:25;;;;;;;10.93;8.87;;;;;;;;;;5071029;28;20190;-75
2023/09/24 05:38:51;;;;;;;12.17;8.63;;;;;;;;;;5078887;28;20198;-79
2023/09/24 05:41:17;;;;;;;9.37;8.40;;;;;;;;;;5084048;22;20240;-79
2023/09/24 05:43:47;;;;;;;11.87;8.70;;;;;;;;;;5074132;28;20179;-79
2023/09/24 05:46:14;;;;;;;12.80;8.73;;;;;;;;;;5044330;28;20221;-79
2023/09/24 05:48:40;;;;;;;10.30;8.27;;;;;;;;;;5042001;28;20183;-80
2023/09/24 05:51:07;;;;;;;12.17;8.87;;;;;;;;;;5040820;28;20202;-80
2023/09/24 05:53:33;;;;;;;10.70;8.17;;;;;;;;;;5072363;28;20207;-77
2023/09/24 05:55:59;;;;;;;9.37;8.20;;;;;;;;;;5052159;28;20183;-76
2023/09/24 05:58:25;;;;;;;10.73;8.53;;;;;;;;;;5048399;28;20183;-76
2023/09/24 06:00:51;;;;;;;11.87;8.67;;;;;;;;;;5067967;28;20195;-76
2023/09/24 06:03:17;;;;;;;11.30;8.57;;;;;;;;;;5032290;28;20183;-76
2023/09/24 06:05:43;;;;;;;10.87;9.43;;;;;;;;;;5067012;28;20210;-77
2023/09/24 06:08:09;;;;;;;11.70;9.47;;;;;;;;;;5050576;28;20184;-76
2023/09/24 06:10:35;;;;;;;11.10;9.80;;;;;;;;;;5067713;28;20183;-76
2023/09/24 06:13:02;;;;;;;11.80;9.73;;;;;;;;;;5062605;28;20188;-75
2023/09/24 06:15:28;;;;;;;12.63;10.30;;;;;;;;;;5040168;28;20233;-76
2023/09/24 06:17:54;;;;;;;10.33;9.20;;;;;;;;;;5040063;28;20188;-75
2023/09/24 06:20:20;;;;;;;12.93;10.17;;;;;;;;;;5039828;28;20184;-75
2023/09/24 06:22:53;;;;;;;10.83;9.73;;;;;;;;;;5048102;28;20175;-75
2023/09/24 06:25:19;;;;;;;11.93;9.87;;;;;;;;;;5059813;28;20211;-75
2023/09/24 06:27:45;;;;;;;12.33;9.70;;;;;;;;;;5058721;28;20195;-76
2023/09/24 06:30:11;;;;;;;11.90;10.03;;;;;;;;;;5059489;28;20183;-77
2023/09/24 06:32:38;;;;;;;10.73;9.70;;;;;;;;;;5051617;28;20192;-76
2023/09/24 06:35:04;;;;;;;12.47;10.73;;;;;;;;;;5056404;28;20187;-76
2023/09/24 06:37:30;;;;;;;14.10;10.80;;;;;;;;;;5060603;28;20179;-76
2023/09/24 06:39:57;;;;;;;17.50;12.30;;;;;;;;;;5071669;28;20188;-76
2023/09/24 06:42:23;;;;;;;14.33;12.60;;;;;;;;;;5023240;28;20235;-76
2023/09/24 06:44:49;;;;;;;15.17;13.53;;;;;;;;;;5021852;28;20208;-77
2023/09/24 06:47:15;;;;;;;15.83;14.23;;;;;;;;;;5026178;28;20290;-78
2023/09/24 06:49:41;;;;;;;14.90;13.37;;;;;;;;;;5055083;28;20203;-78
2023/09/24 06:52:08;;;;;;;17.63;13.57;;;;;;;;;;5056981;28;20176;-78
2023/09/24 06:54:35;;;;;;;16.67;13.50;;;;;;;;;;5064821;28;20191;-78
2023/09/24 06:57:01;;;;;;;15.73;13.17;;;;;;;;;;5059834;28;20175;-78
2023/09/24 06:59:28;;;;;;;14.40;12.63;;;;;;;;;;5040677;28;20192;-78
2023/09/24 07:01:54;;;;;;;15.03;12.53;;;;;;;;;;5076233;28;20180;-77
2023/09/24 07:04:20;;;;;;;12.80;11.60;;;;;;;;;;5075729;28;20213;-80
2023/09/24 07:06:46;;;;;;;14.47;12.17;;;;;;;;;;5058673;28;20182;-80
2023/09/24 07:09:12;;;;;;;12.53;11.30;;;;;;;;;;5039395;28;20286;-80
2023/09/24 07:11:38;;;;;;;13.13;11.77;;;;;;;;;;5059240;28;20186;-80
2023/09/24 07:14:05;;;;;;;13.07;11.70;;;;;;;;;;5058990;28;20195;-80
2023/09/24 07:16:31;;;;;;;14.47;11.67;;;;;;;;;;5070477;28;20172;-80
2023/09/24 07:18:58;;;;;;;15.50;12.60;;;;;;;;;;5053150;28;20218;-76
2023/09/24 07:21:26;;;;;;;14.80;12.07;;;;;;;;;;5058133;28;20176;-75
2023/09/24 07:23:54;;;;;;;13.53;12.17;;;;;;;;;;5042066;28;20179;-75
2023/09/24 07:26:20;;;;;;;13.73;10.70;;;;;;;;;;5058528;28;20206;-75
2023/09/24 07:28:47;;;;;;;13.30;11.90;;;;;;;;;;5038195;28;20191;-75
2023/09/24 07:31:19;;;;;;;11.27;10.17;;;;;;;;;;5072900;28;20525;-75
2023/09/24 07:33:45;;;;;;;11.80;10.63;;;;;;;;;;5057568;28;20183;-79
2023/09/24 07:36:11;;;;;;;13.33;10.27;;;;;;;;;;5074851;28;20202;-78
2023/09/24 07:38:38;;;;;;;11.60;10.40;;;;;;;;;;5076277;28;20201;-78
2023/09/24 07:41:04;;;;;;;11.20;9.60;;;;;;;;;;5037052;28;20307;-77
2023/09/24 07:43:30;;;;;;;13.47;9.40;;;;;;;;;;5038348;28;20210;-77
2023/09/24 07:45:57;;;;;;;11.87;9.20;;;;;;;;;;5055555;28;20203;-77
2023/09/24 07:48:22;;;;;;;12.83;9.37;;;;;;;;;;5071603;28;20172;-77
2023/09/24 07:50:53;;;;;;;13.83;8.70;;;;;;;;;;5071073;28;20182;-76
2023/09/24 07:53:19;;;;;;;11.90;8.70;;;;;;;;;;5071115;28;20206;-76
2023/09/24 07:55:45;;;;;;;12.63;9.07;;;;;;;;;;5070955;28;20172;-76
2023/09/24 07:58:11;;;;;;;8.90;8.00;;;;;;;;;;5021603;28;20195;-76
2023/09/24 08:00:38;;;;;;;11.13;8.33;;;;;;;;;;5055331;28;20203;-76
2023/09/24 08:03:05;;;;;;;9.87;8.10;;;;;;;;;;5070921;28;20192;-76
2023/09/24 08:05:32;;;;;;;8.77;7.33;;;;;;;;;;5055551;28;20208;-76
2023/09/24 08:07:58;;;;;;;9.63;7.53;;;;;;;;;;5021703;28;20247;-78
2023/09/24 08:10:25;;;;;;;8.30;7.17;;;;;;;;;;5037926;28;20183;-78
2023/09/24 08:12:51;;;;;;;9.20;6.70;;;;;;;;;;5054397;28;20191;-78
2023/09/24 08:15:17;;;;;;;10.33;6.90;;;;;;;;;;5038441;28;20187;-76
2023/09/24 08:17:43;;;;;;;8.57;6.53;;;;;;;;;;5055228;28;20180;-76
2023/09/24 08:20:09;;;;;;;10.83;6.90;;;;;;;;;;5054297;28;20179;-76
2023/09/24 08:22:35;;;;;;;11.87;6.90;;;;;;;;;;5051438;28;20219;-76
2023/09/24 08:25:02;;;;;;;7.67;6.23;;;;;;;;;;5054142;28;20230;-78
2023/09/24 08:27:28;;;;;;;7.20;6.30;;;;;;;;;;5037779;28;20180;-79
2023/09/24 08:29:54;;;;;;;8.13;5.80;;;;;;;;;;5037788;28;20893;-79
2023/09/24 08:32:20;;;;;;;9.80;5.97;;;;;;;;;;5054371;28;20225;-79
2023/09/24 08:34:46;;;;;;;9.23;5.30;;;;;;;;;;5053809;28;20187;-78
2023/09/24 08:37:12;;;;;;;6.40;4.97;;;;;;;;;;5040598;28;20179;-79
2023/09/24 08:39:38;;;;;;;7.33;4.77;;;;;;;;;;5063709;28;20198;-79
2023/09/24 08:42:05;;;;;;;10.20;4.60;;;;;;;;;;5017102;28;20236;-78
2023/09/24 08:44:32;;;;;;;9.47;4.60;;;;;;;;;;5033952;28;20204;-78
2023/09/24 08:46:59;;;;;;;7.00;4.40;;;;;;;;;;5017851;28;20176;-78
2023/09/24 08:49:26;;;;;;;7.10;4.10;;;;;;;;;;5033704;28;20172;-78
2023/09/24 08:51:52;;;;;;;6.70;3.80;;;;;;;;;;5033530;28;20177;-78
2023/09/24 08:54:18;;;;;;;6.90;3.87;;;;;;;;;;5017335;28;20186;-78
2023/09/24 08:56:44;;;;;;;5.33;3.60;;;;;;;;;;5035880;28;20190;-78
2023/09/24 08:59:10;;;;;;;7.63;4.03;;;;;;;;;;5054035;28;20187;-78
2023/09/24 09:01:36;;;;;;;5.73;4.10;;;;;;;;;;5033752;28;20237;-78
2023/09/24 09:04:02;;;;;;;8.03;4.17;;;;;;;;;;5034626;28;20279;-78
2023/09/24 09:06:36;;;;;;;6.87;3.90;;;;;;;;;;5033612;28;20216;-78
2023/09/24 09:09:02;;;;;;;5.83;3.43;;;;;;;;;;5041001;28;20187;-78
2023/09/24 09:11:41;;;;;;;7.20;3.67;;;;;;;;;;5037351;28;20180;-78
2023/09/24 09:14:08;;;;;;;7.50;3.90;;;;;;;;;;5053832;28;20183;-77
2023/09/24 09:16:53;;;;;;;8.80;4.03;;;;;;;;;;5053896;28;20191;-76
2023/09/24 09:19:19;;;;;;;7.47;3.70;;;;;;;;;;5054946;28;20519;-76
2023/09/24 09:21:45;;;;;;;8.03;3.87;;;;;;;;;;5037576;28;20180;-77
2023/09/24 09:24:23;;;;;;;7.17;3.50;;;;;;;;;;5037044;28;20182;-77
2023/09/24 09:26:54;;;;;;;8.13;3.53;;;;;;;;;;5053192;28;20258;-77
2023/09/24 09:29:28;;;;;;;4.67;3.40;;;;;;;;;;5053273;28;20176;-77
2023/09/24 09:31:54;;;;;;;7.10;3.70;;;;;;;;;;5052835;28;20179;-77
2023/09/24 09:34:23;;;;;;;9.23;3.20;;;;;;;;;;5053545;28;20176;-77
2023/09/24 09:36:50;;;;;;;7.27;3.50;;;;;;;;;;5053168;28;20214;-77
2023/09/24 09:39:16;;;;;;;5.93;3.07;;;;;;;;;;5037118;28;20180;-77
2023/09/24 09:41:45;;;;;;;6.43;3.20;;;;;;;;;;5064417;28;20225;-77
2023/09/24 09:44:14;;;;;;;6.50;3.23;;;;;;;;;;5056965;28;20262;-76
2023/09/24 09:46:46;;;;;;;5.97;3.23;;;;;;;;;;5074446;28;20254;-78
2023/09/24 09:49:13;;;;;;;5.67;3.20;;;;;;;;;;5057513;28;20172;-80
2023/09/24 09:51:41;;;;;;;7.53;3.90;;;;;;;;;;5057871;28;20175;-79
2023/09/24 09:54:07;;;;;;;6.53;3.50;;;;;;;;;;5056682;28;20183;-79
2023/09/24 09:56:36;;;;;;;7.13;3.43;;;;;;;;;;5074508;28;20179;-79
2023/09/24 09:59:04;;;;;;;5.67;3.20;;;;;;;;;;5074138;28;20175;-79
2023/09/24 10:01:31;;;;;;;6.00;3.40;;;;;;;;;;5056599;28;20172;-79
2023/09/24 10:03:58;;;;;;;7.50;3.03;;;;;;;;;;5074378;28;20194;-77
2023/09/24 10:06:24;;;;;;;7.73;3.23;;;;;;;;;;5037744;28;20270;-77
2023/09/24 10:08:50;;;;;;;4.97;3.00;;;;;;;;;;5051493;28;20195;-77
2023/09/24 10:11:31;;;;;;;5.13;3.17;;;;;;;;;;5050964;28;20222;-77
2023/09/24 10:13:58;;;;;;;5.53;3.13;;;;;;;;;;5074448;28;20171;-77
2023/09/24 10:16:30;;;;;;;6.17;3.10;;;;;;;;;;5056147;28;20171;-76
2023/09/24 10:18:56;;;;;;;7.53;3.10;;;;;;;;;;5039484;28;20194;-76
2023/09/24 10:21:43;;;;;;;6.03;2.60;;;;;;;;;;5057985;28;20175;-79
2023/09/24 10:24:15;;;;;;;5.97;2.80;;;;;;;;;;5040050;28;20236;-79
2023/09/24 10:26:48;;;;;;;5.60;2.70;;;;;;;;;;5040385;28;20219;-81
2023/09/24 10:29:14;;;;;;;4.63;2.60;;;;;;;;;;5040153;28;20180;-79
2023/09/24 10:31:58;;;;;;;5.67;3.13;;;;;;;;;;5065231;28;20176;-80
2023/09/24 10:34:24;;;;;;;7.33;2.70;;;;;;;;;;5073322;28;20215;-77
2023/09/24 10:37:09;;;;;;;4.20;2.33;;;;;;;;;;5023378;28;20176;-77
2023/09/24 10:39:55;;;;;;;5.47;2.80;;;;;;;;;;5040420;28;20276;-77
2023/09/24 10:42:21;;;;;;;4.30;2.60;;;;;;;;;;5057748;28;20255;-77
2023/09/24 10:44:47;;;;;;;5.43;2.90;;;;;;;;;;5023670;28;20254;-77
2023/09/24 10:47:27;;;;;;;5.87;2.70;;;;;;;;;;5057632;28;20175;-77
2023/09/24 10:50:07;;;;;;;7.13;2.73;;;;;;;;;;5023352;28;20184;-77
2023/09/24 10:52:51;;;;;;;6.10;2.50;;;;;;;;;;5023909;28;20183;-77
2023/09/24 10:55:19;;;;;;;6.68;2.90;;;;;;;;;;5039409;28;20435;-80
2023/09/24 10:57:53;;;;;;;5.07;2.70;;;;;;;;;;5040196;28;20404;-80
2023/09/24 11:00:20;;;;;;;4.80;2.45;;;;;;;;;;5074619;28;20472;-80
2023/09/24 11:02:46;;;;;;;6.55;2.70;;;;;;;;;;5043329;28;20497;-80
2023/09/24 11:05:12;;;;;;;4.38;2.50;;;;;;;;;;5067018;28;20455;-80
2023/09/24 11:07:38;;;;;;;6.77;2.57;;;;;;;;;;5022449;28;20435;-80
2023/09/24 11:10:05;;;;;;;5.13;2.50;;;;;;;;;;5037658;28;20420;-80
2023/09/24 11:12:31;;;;;;;4.88;2.38;;;;;;;;;;5056483;28;20452;-80
2023/09/24 11:14:58;;;;;;;5.80;2.50;;;;;;;;;;5038536;28;20528;-80
2023/09/24 11:17:24;;;;;;;5.95;2.30;;;;;;;;;;5055131;28;20400;-80
2023/09/24 11:19:50;;;;;;;4.72;2.63;;;;;;;;;;5054166;28;20503;-80
2023/09/24 11:22:23;;;;;;;5.20;2.35;;;;;;;;;;5056182;28;20478;-80
2023/09/24 11:25:12;;;;;;;5.10;2.25;;;;;;;;;;5037971;28;20435;-80
2023/09/24 11:27:52;;;;;;;5.88;2.25;;;;;;;;;;5054822;28;20465;-78
2023/09/24 11:30:19;;;;;;;4.65;2.20;;;;;;;;;;5055155;28;20399;-77
2023/09/24 11:32:46;;;;;;;4.82;2.10;;;;;;;;;;5060059;28;20414;-77
2023/09/24 11:35:16;;;;;;;3.43;2.07;;;;;;;;;;5074254;28;20430;-77
2023/09/24 11:37:45;;;;;;;4.50;2.10;;;;;;;;;;5072186;28;20414;-77
2023/09/24 11:42:48;;;;;;;6.35;2.20;;;;;;;;;;5034217;28;20492;-80
2023/09/24 11:45:14;;;;;;;7.22;2.60;;;;;;;;;;5035729;28;20447;-77
2023/09/24 11:47:40;;;;;;;4.97;2.03;;;;;;;;;;5034798;28;20504;-76
2023/09/24 11:50:06;;;;;;;3.70;1.90;;;;;;;;;;5022487;28;20419;-77
2023/09/24 11:52:32;;;;;;;5.63;2.08;;;;;;;;;;5031177;28;20412;-77
2023/09/24 11:54:58;;;;;;;4.43;2.10;;;;;;;;;;5031208;28;20428;-78
2023/09/24 11:57:24;;;;;;;4.35;2.00;;;;;;;;;;5030737;28;20422;-78
2023/09/24 11:59:50;;;;;;;4.35;2.30;;;;;;;;;;5030456;28;20426;-78
2023/09/24 12:02:16;;;;;;;5.03;2.28;;;;;;;;;;5031773;28;20177;-81
2023/09/24 12:04:43;;;;;;;4.45;2.22;;;;;;;;;;5031580;28;20233;-80
2023/09/24 12:07:09;;;;;;;4.18;1.80;;;;;;;;;;5031998;28;20192;-80
2023/09/24 12:09:35;;;;;;;4.25;2.15;;;;;;;;;;5015681;28;20407;-80
2023/09/24 12:12:01;;;;;;;5.77;2.20;;;;;;;;;;5030439;28;20417;-80
2023/09/24 12:14:31;;;;;;;6.00;2.22;;;;;;;;;;5030452;28;20414;-80
2023/09/24 12:16:58;;;;;;;4.28;2.08;;;;;;;;;;5031137;28;20518;-78
2023/09/24 12:19:24;;;;;;;3.80;2.00;;;;;;;;;;5030636;28;20422;-78
2023/09/24 12:21:50;;;;;;;3.70;2.08;;;;;;;;;;5031372;28;20491;-77
2023/09/24 12:24:16;;;;;;;3.67;1.95;;;;;;;;;;5030008;28;20502;-77
2023/09/24 12:26:42;;;;;;;6.07;2.20;;;;;;;;;;5031684;28;20197;-77
2023/09/24 12:29:08;;;;;;;4.53;2.20;;;;;;;;;;5030714;28;20426;-78
2023/09/24 12:31:35;;;;;;;6.55;2.60;;;;;;;;;;5031378;28;20169;-78
2023/09/24 12:34:01;;;;;;;4.85;2.30;;;;;;;;;;5030898;28;20411;-80
2023/09/24 12:36:29;;;;;;;3.10;1.90;;;;;;;;;;5031593;28;20192;-80
2023/09/24 12:38:55;;;;;;;4.18;2.20;;;;;;;;;;5030581;28;20415;-80
2023/09/24 12:41:21;;;;;;;3.72;2.00;;;;;;;;;;5029639;28;20450;-80
2023/09/24 12:43:48;;;;;;;4.07;1.97;;;;;;;;;;5014869;28;20235;-80
2023/09/24 12:46:14;;;;;;;5.00;2.33;;;;;;;;;;5029869;28;20438;-80
2023/09/24 12:48:40;;;;;;;3.90;2.00;;;;;;;;;;5035096;28;20424;-78
2023/09/24 12:51:06;;;;;;;4.45;2.33;;;;;;;;;;5043872;28;20571;-79
2023/09/24 12:53:33;;;;;;;4.50;2.20;;;;;;;;;;5030440;28;20407;-79
2023/09/24 12:55:59;;;;;;;4.23;2.27;;;;;;;;;;5030345;28;20449;-78
2023/09/24 12:58:25;;;;;;;5.40;2.22;;;;;;;;;;5030976;28;20419;-79
2023/09/24 13:00:51;;;;;;;4.65;2.20;;;;;;;;;;5028633;28;20436;-80
2023/09/24 13:03:18;;;;;;;3.92;2.10;;;;;;;;;;5013577;28;20439;-80
2023/09/24 13:05:44;;;;;;;6.00;1.98;;;;;;;;;;5030028;28;20541;-75
2023/09/24 13:08:12;;;;;;;4.28;2.10;;;;;;;;;;5015086;28;20472;-79
2023/09/24 13:28:59;;;;;;;4.07;2.10;;;;;;;;;;5051017;28;20459;-76
2023/09/24 13:31:25;;;;;;;3.93;2.00;;;;;;;;;;5019914;28;20218;-76
2023/09/24 13:33:51;;;;;;;3.47;1.95;;;;;;;;;;5021593;28;20425;-76
2023/09/24 13:36:17;;;;;;;3.33;1.90;;;;;;;;;;5036575;28;20183;-76
2023/09/24 13:38:43;;;;;;;4.95;2.10;;;;;;;;;;5020548;28;20434;-76
2023/09/24 13:41:12;;;;;;;2.50;1.77;;;;;;;;;;5053515;28;20242;-78
2023/09/24 13:43:38;;;;;;;4.07;2.17;;;;;;;;;;5020607;28;20426;-78
2023/09/24 13:46:04;;;;;;;3.03;1.92;;;;;;;;;;5036242;28;20458;-78
2023/09/24 13:48:30;;;;;;;3.40;2.07;;;;;;;;;;5036087;28;20510;-78
2023/09/24 13:50:56;;;;;;;4.50;2.17;;;;;;;;;;5021380;28;20215;-80
2023/09/24 13:53:22;;;;;;;4.60;2.00;;;;;;;;;;5038827;28;20176;-80
2023/09/24 13:55:49;;;;;;;4.90;2.10;;;;;;;;;;5059306;28;20176;-79
2023/09/24 13:58:15;;;;;;;4.32;2.25;;;;;;;;;;5040758;28;20434;-77
2023/09/24 14:00:51;;;;;;;4.77;2.33;;;;;;;;;;5041982;28;20416;-77
2023/09/24 14:03:18;;;;;;;7.13;2.25;;;;;;;;;;5040656;28;20411;-75
2023/09/24 14:05:44;;;;;;;5.03;2.00;;;;;;;;;;5041277;28;20337;-76
2023/09/24 14:13:39;;;;;;;5.10;2.40;;;;;;;;;;5058095;28;20194;-76
2023/09/24 14:16:10;;;;;;;3.73;2.10;;;;;;;;;;5025001;28;20274;-79
2023/09/24 14:18:36;;;;;;;4.53;2.17;;;;;;;;;;5040577;28;20249;-79
2023/09/24 14:21:12;;;;;;;2.70;1.87;;;;;;;;;;5035703;28;20244;-79
2023/09/24 14:23:39;;;;;;;3.87;2.17;;;;;;;;;;5037782;28;20180;-79
2023/09/24 14:26:05;;;;;;;6.00;2.25;;;;;;;;;;5021601;28;20516;-79
2023/09/24 14:28:32;;;;;;;5.97;2.30;;;;;;;;;;5034005;28;20225;-79
2023/09/24 14:31:03;;;;;;;4.57;2.00;;;;;;;;;;5017229;28;20434;-77
2023/09/24 14:33:29;;;;;;;4.93;2.30;;;;;;;;;;5018591;28;20411;-77
2023/09/24 14:35:59;;;;;;;4.43;2.13;;;;;;;;;;5000204;28;20422;-77
2023/09/24 14:38:25;;;;;;;3.10;2.07;;;;;;;;;;5001155;28;20284;-77
2023/09/24 14:40:54;;;;;;;3.27;2.13;;;;;;;;;;5000954;28;20200;-77
2023/09/24 14:43:20;;;;;;;3.40;2.00;;;;;;;;;;5016432;28;20501;-77
2023/09/24 14:45:46;;;;;;;3.85;2.10;;;;;;;;;;5007761;28;20476;-77
2023/09/24 14:48:12;;;;;;;3.80;2.17;;;;;;;;;;4996808;28;20448;-76
2023/09/24 14:50:40;;;;;;;4.93;2.40;;;;;;;;;;4998021;28;20482;-77
2023/09/24 14:53:06;;;;;;;4.20;2.10;;;;;;;;;;5012362;28;20412;-77
2023/09/24 14:55:39;;;;;;;6.20;2.63;;;;;;;;;;5014912;28;20416;-77
2023/09/24 14:58:05;;;;;;;3.20;2.00;;;;;;;;;;5013613;28;20431;-79
2023/09/24 15:00:31;;;;;;;3.33;2.22;;;;;;;;;;5014489;28;20434;-77
2023/09/24 15:02:59;;;;;;;4.68;2.20;;;;;;;;;;4997559;28;20405;-78
2023/09/24 15:05:25;;;;;;;6.05;5.45;;;;;;;;;;4995294;28;20436;-78